CYPR/YPR METAR and TAF weather

Enter ICAO airport designator
Station Type Date Time Source
CYPR METAR 2020/01/21 18:36 UTC NOAA

CYPR 211836Z AUTO 10004KT 070V190 9SM -RA OVC044 05/03 A2934 RMK SLP939


Station Type Date Time Source
CYPR Decoded METAR 2020/01/21 18:36 UTC NOAA

Prince Rupert, B. C., Canada (CYPR) 54-18N 130-26W 34M
Jan 21, 2020 - 01:36 PM EST / 2020.01.21 1836 UTC
Wind: from the E (100 degrees) at 5 MPH (4 KT) (direction variable):0
Visibility: 9 mile(s):0
Sky conditions: overcast
Weather: light rain
Temperature: 41 F (5 C)
Dew Point: 37 F (3 C)
Relative Humidity: 86%
Pressure (altimeter): 29.34 in. Hg (993 hPa)
ob: CYPR 211836Z AUTO 10004KT 070V190 9SM -RA OVC044 05/03 A2934 RMK SLP939
cycle: 18

Station Type Date Time Source
CYPR TAF 2020/01/21 19:39 UTC NOAA

TAF TAF CYPR 211838Z 2119/2207 VRB03KT P6SM SCT020 BKN050 OVC110
TEMPO 2119/2207 5SM -RA BR BKN020 OVC050
BECMG 2121/2123 10008KT
RMK FCST BASED ON AUTO OBS. NXT FCST BY 220100Z

Example: see airport list